createdAt,value
2022-09-01T00:00:38.453Z,8.70
2022-09-01T00:03:41.147Z,7.70
2022-09-01T00:06:44.107Z,9.70
2022-09-01T00:09:46.281Z,9.40
2022-09-01T00:12:48.252Z,9.30
2022-09-01T00:15:50.399Z,8.70
2022-09-01T00:18:55.143Z,9.77
2022-09-01T00:21:57.757Z,11.43
2022-09-01T00:25:01.380Z,9.30
2022-09-01T00:28:05.096Z,10.10
2022-09-01T00:31:08.807Z,9.13
2022-09-01T00:34:11.537Z,9.63
2022-09-01T00:37:13.653Z,9.70
2022-09-01T00:40:17.713Z,10.67
2022-09-01T00:43:41.109Z,9.20
2022-09-01T00:46:51.688Z,9.30
2022-09-01T00:49:58.577Z,10.23
2022-09-01T00:53:01.225Z,10.87
2022-09-01T00:56:05.577Z,8.10
2022-09-01T00:59:11.792Z,9.27
2022-09-01T01:02:13.993Z,9.73
2022-09-01T01:05:16.490Z,9.83
2022-09-01T01:08:20.070Z,9.67
2022-09-01T01:11:22.599Z,9.23
2022-09-01T01:14:24.677Z,8.90
2022-09-01T01:17:26.800Z,10.50
2022-09-01T01:20:52.712Z,10.47
2022-09-01T01:24:02.345Z,8.77
2022-09-01T01:27:05.478Z,10.97
2022-09-01T01:30:11.594Z,11.13
2022-09-01T01:33:13.634Z,9.90
2022-09-01T01:36:32.786Z,8.80
2022-09-01T01:39:41.052Z,8.37
2022-09-01T01:42:50.645Z,8.93
2022-09-01T01:45:55.116Z,9.00
2022-09-01T01:49:05.268Z,9.17
2022-09-01T01:52:08.102Z,9.00
2022-09-01T01:55:12.922Z,9.73
2022-09-01T01:58:22.299Z,9.87
2022-09-01T02:01:29.337Z,8.23
2022-09-01T02:04:34.321Z,8.07
2022-09-01T02:07:43.073Z,7.57
2022-09-01T02:10:48.405Z,7.73
2022-09-01T02:13:50.558Z,9.73
2022-09-01T02:16:56.502Z,9.30
2022-09-01T02:19:58.645Z,7.90
2022-09-01T02:23:09.468Z,6.43
2022-09-01T02:26:17.222Z,6.80
2022-09-01T02:29:23.085Z,6.23
2022-09-01T02:32:25.120Z,6.70
2022-09-01T02:35:38.058Z,6.10
2022-09-01T02:38:46.875Z,6.33
2022-09-01T02:41:56.633Z,5.17
2022-09-01T02:45:03.733Z,5.87
2022-09-01T02:48:10.413Z,5.90
2022-09-01T02:51:17.460Z,8.03
2022-09-01T02:54:22.983Z,6.77
2022-09-01T02:57:25.127Z,7.60
2022-09-01T03:00:33.590Z,6.43
2022-09-01T03:03:36.050Z,7.40
2022-09-01T03:06:38.850Z,7.43
2022-09-01T03:09:43.119Z,7.80
2022-09-01T03:12:45.181Z,8.73
2022-09-01T03:15:50.669Z,7.80
2022-09-01T03:18:53.601Z,7.67
2022-09-01T03:22:00.391Z,7.40
2022-09-01T03:25:06.379Z,9.60
2022-09-01T03:28:09.415Z,7.57
2022-09-01T03:31:12.392Z,8.10
2022-09-01T03:34:16.665Z,8.63
2022-09-01T03:37:24.084Z,10.10
2022-09-01T03:40:32.889Z,9.30
2022-09-01T03:43:36.333Z,7.53
2022-09-01T03:46:40.633Z,7.27
2022-09-01T03:49:43.810Z,7.97
2022-09-01T03:52:49.527Z,7.00
2022-09-01T03:55:53.246Z,7.73
2022-09-01T03:58:57.437Z,6.50
2022-09-01T04:02:30.022Z,6.57
2022-09-01T04:05:34.152Z,6.63
2022-09-01T04:08:37.552Z,6.47
2022-09-01T04:11:45.751Z,7.67
2022-09-01T04:14:49.471Z,6.17
2022-09-01T04:18:09.914Z,6.07
2022-09-01T04:21:14.233Z,6.27
2022-09-01T04:24:19.190Z,7.60
2022-09-01T04:27:27.413Z,7.13
2022-09-01T04:30:32.116Z,6.80
2022-09-01T04:33:46.825Z,9.17
2022-09-01T04:36:54.646Z,6.90
2022-09-01T04:39:57.786Z,8.47
2022-09-01T04:43:01.287Z,6.90
2022-09-01T04:46:03.608Z,7.43
2022-09-01T04:49:08.477Z,6.00
2022-09-01T04:52:15.563Z,6.13
2022-09-01T04:55:18.201Z,6.60
2022-09-01T04:58:22.528Z,7.23
2022-09-01T05:01:27.867Z,7.73
2022-09-01T05:04:34.019Z,5.67
2022-09-01T05:07:38.232Z,5.57
2022-09-01T05:10:45.948Z,5.63
2022-09-01T05:14:01.684Z,4.60
2022-09-01T05:17:10.362Z,5.77
2022-09-01T05:20:14.119Z,5.33
2022-09-01T05:23:19.690Z,4.97
2022-09-01T05:26:26.269Z,4.73
2022-09-01T05:29:45.301Z,5.63
2022-09-01T05:32:49.327Z,5.87
2022-09-01T05:36:01.399Z,4.63
2022-09-01T05:39:06.549Z,5.00
2022-09-01T05:42:08.873Z,4.40
2022-09-01T05:45:14.490Z,4.73
2022-09-01T05:48:21.982Z,4.73
2022-09-01T05:51:45.495Z,8.17
2022-09-01T05:54:49.921Z,6.83
2022-09-01T05:57:55.228Z,5.90
2022-09-01T06:00:59.318Z,3.33
2022-09-01T06:04:05.897Z,4.53
2022-09-01T06:07:16.298Z,4.87
2022-09-01T06:10:27.716Z,4.07
2022-09-01T06:13:30.862Z,5.83
2022-09-01T06:16:33.634Z,3.73
2022-09-01T06:19:37.363Z,4.13
2022-09-01T06:22:41.329Z,4.00
2022-09-01T06:25:47.889Z,2.97
2022-09-01T06:28:55.051Z,5.97
2022-09-01T06:32:00.049Z,5.27
2022-09-01T06:35:05.811Z,4.30
2022-09-01T06:38:10.431Z,4.03
2022-09-01T06:41:19.583Z,4.43
2022-09-01T06:44:27.082Z,2.40
2022-09-01T06:47:38.072Z,3.17
2022-09-01T06:54:03.243Z,3.43
2022-09-01T07:00:33.637Z,3.07
2022-09-01T07:03:37.360Z,3.27
2022-09-01T07:07:54.392Z,2.93
2022-09-01T07:14:19.577Z,2.63
2022-09-01T07:17:23.246Z,4.10
2022-09-01T07:20:29.509Z,4.27
2022-09-01T07:23:46.250Z,6.13
2022-09-01T07:26:50.965Z,3.50
2022-09-01T07:29:53.448Z,2.23
2022-09-01T07:32:55.742Z,3.73
2022-09-01T07:43:06.960Z,2.10
2022-09-01T07:46:44.132Z,3.70
2022-09-01T07:50:13.041Z,4.10
2022-09-01T07:53:19.460Z,2.27
2022-09-01T07:56:24.105Z,2.27
2022-09-01T07:59:28.190Z,2.17
2022-09-01T08:02:47.381Z,1.90
2022-09-01T08:05:57.822Z,2.37
2022-09-01T08:09:06.333Z,2.53
2022-09-01T08:12:10.034Z,3.57
2022-09-01T08:18:51.798Z,2.00
2022-09-01T08:22:03.283Z,2.93
2022-09-01T08:25:22.943Z,1.43
2022-09-01T08:28:28.424Z,1.37
2022-09-01T08:31:32.873Z,1.97
2022-09-01T08:34:37.546Z,2.93
2022-09-01T08:37:43.949Z,4.00
2022-09-01T08:40:57.157Z,1.67
2022-09-01T08:44:26.481Z,3.43
2022-09-01T08:47:43.621Z,1.93
2022-09-01T08:51:07.140Z,1.27
2022-09-01T08:54:54.080Z,3.63
2022-09-01T08:57:59.752Z,1.37
2022-09-01T09:01:09.246Z,2.73
2022-09-01T09:04:20.299Z,2.87
2022-09-01T09:07:47.708Z,2.07
2022-09-01T09:11:07.116Z,2.47
2022-09-01T09:14:27.722Z,2.77
2022-09-01T09:17:45.133Z,1.10
2022-09-01T09:20:47.734Z,2.47
2022-09-01T09:24:00.811Z,1.47
2022-09-01T09:27:03.908Z,1.53
2022-09-01T09:30:16.502Z,3.23
2022-09-01T09:33:52.069Z,3.13
2022-09-01T09:36:57.394Z,1.37
2022-09-01T09:40:16.145Z,1.63
2022-09-01T09:43:21.687Z,3.90
2022-09-01T09:46:32.904Z,0.90
2022-09-01T09:49:41.401Z,1.87
2022-09-01T09:52:48.114Z,2.00
2022-09-01T09:56:01.917Z,1.17
2022-09-01T09:59:57.085Z,3.80
2022-09-01T10:03:08.614Z,2.10
2022-09-01T10:06:13.294Z,1.23
2022-09-01T10:09:18.063Z,1.90
2022-09-01T10:12:20.429Z,0.80
2022-09-01T10:15:26.393Z,1.13
2022-09-01T10:18:40.313Z,1.33
2022-09-01T10:21:47.989Z,1.37
2022-09-01T10:24:50.755Z,0.73
2022-09-01T10:28:20.948Z,1.00
2022-09-01T10:31:32.086Z,2.10
2022-09-01T10:34:38.370Z,1.47
2022-09-01T10:37:42.042Z,1.43
2022-09-01T10:40:49.487Z,1.27
2022-09-01T10:43:52.497Z,1.33
2022-09-01T10:46:59.912Z,3.03
2022-09-01T10:50:23.137Z,0.80
2022-09-01T10:53:34.292Z,1.43
2022-09-01T10:56:52.041Z,1.97
2022-09-01T10:59:58.582Z,2.80
2022-09-01T11:10:33.247Z,1.07
2022-09-01T11:14:04.816Z,2.20
2022-09-01T11:17:25.566Z,4.00
2022-09-01T11:20:34.141Z,1.57
2022-09-01T11:23:36.988Z,1.03
2022-09-01T11:26:49.288Z,4.40
2022-09-01T11:30:09.380Z,1.40
2022-09-01T11:33:17.738Z,1.10
2022-09-01T11:36:31.802Z,1.80
2022-09-01T11:39:40.700Z,1.42
2022-09-01T11:42:47.179Z,1.23
2022-09-01T11:45:58.986Z,2.47
2022-09-01T11:49:08.729Z,1.30
2022-09-01T11:52:17.960Z,1.23
2022-09-01T11:55:41.514Z,1.40
2022-09-01T11:58:45.397Z,2.53
2022-09-01T12:01:47.815Z,1.67
2022-09-01T12:04:51.218Z,1.10
2022-09-01T12:07:53.667Z,1.63
2022-09-01T12:11:09.989Z,1.27
2022-09-01T12:14:19.427Z,0.80
2022-09-01T12:17:21.795Z,1.87
2022-09-01T12:20:29.792Z,1.27
2022-09-01T12:23:46.204Z,1.80
2022-09-01T12:27:00.291Z,2.33
2022-09-01T12:30:12.778Z,2.05
2022-09-01T12:33:23.476Z,0.95
2022-09-01T12:36:36.124Z,1.45
2022-09-01T12:39:42.710Z,0.95
2022-09-01T12:42:51.477Z,3.58
2022-09-01T12:45:53.709Z,1.10
2022-09-01T12:49:28.768Z,0.93
2022-09-01T12:52:33.184Z,1.38
2022-09-01T12:55:52.551Z,1.85
2022-09-01T12:59:16.056Z,1.30
2022-09-01T13:02:45.949Z,2.03
2022-09-01T13:05:52.667Z,1.00
2022-09-01T13:08:55.306Z,1.02
2022-09-01T13:12:19.645Z,1.80
2022-09-01T13:15:23.941Z,0.85
2022-09-01T13:18:32.020Z,2.55
2022-09-01T13:21:36.741Z,1.60
2022-09-01T13:24:40.781Z,2.58
2022-09-01T13:27:45.769Z,2.20
2022-09-01T13:31:28.544Z,1.27
2022-09-01T13:34:21.887Z,0.60
2022-09-01T13:37:25.655Z,1.00
2022-09-01T13:40:27.896Z,2.70
2022-09-01T13:43:31.588Z,1.88
2022-09-01T13:46:33.658Z,0.85
2022-09-01T13:52:59.034Z,1.30
2022-09-01T13:56:01.402Z,1.02
2022-09-01T13:59:03.453Z,2.25
2022-09-01T14:02:20.881Z,2.63
2022-09-01T14:05:29.182Z,0.73
2022-09-01T14:08:31.617Z,0.82
2022-09-01T14:11:35.031Z,0.40
2022-09-01T14:18:00.642Z,1.15
2022-09-01T14:21:03.388Z,1.10
2022-09-01T14:27:13.988Z,0.93
2022-09-01T14:30:20.647Z,0.88
2022-09-01T14:33:28.750Z,0.97
2022-09-01T14:36:32.198Z,1.17
2022-09-01T14:39:38.744Z,0.50
2022-09-01T14:42:50.603Z,1.03
2022-09-01T14:46:06.814Z,0.90
2022-09-01T14:49:09.769Z,1.10
2022-09-01T14:52:12.420Z,1.03
2022-09-01T14:55:15.243Z,0.80
2022-09-01T14:58:17.263Z,1.38
2022-09-01T15:01:33.780Z,0.55
2022-09-01T15:04:36.705Z,1.95
2022-09-01T15:07:40.146Z,1.30
2022-09-01T15:10:42.762Z,2.27
2022-09-01T15:13:46.450Z,1.07
2022-09-01T15:16:48.556Z,0.87
2022-09-01T15:19:50.645Z,1.97
2022-09-01T15:22:52.969Z,1.67
2022-09-01T15:25:57.991Z,1.07
2022-09-01T15:29:02.392Z,2.00
2022-09-01T15:32:04.670Z,3.90
2022-09-01T15:35:07.322Z,2.93
2022-09-01T15:38:10.474Z,2.93
2022-09-01T15:41:22.352Z,1.20
2022-09-01T15:44:24.459Z,1.67
2022-09-01T15:47:26.727Z,1.00
2022-09-01T15:50:29.065Z,1.20
2022-09-01T15:53:31.142Z,1.30
2022-09-01T15:56:33.699Z,1.00
2022-09-01T15:59:35.888Z,1.23
2022-09-01T17:02:30.661Z,2.27
2022-09-01T17:05:57.517Z,0.90
2022-09-01T17:09:16.857Z,1.63
2022-09-01T17:12:23.672Z,2.03
2022-09-01T17:15:40.248Z,3.83
2022-09-01T17:18:49.058Z,1.90
2022-09-01T17:22:18.064Z,1.10
2022-09-01T17:25:33.956Z,2.67
2022-09-01T17:28:38.960Z,0.53
2022-09-01T17:31:51.882Z,0.77
2022-09-01T17:35:16.413Z,1.50
2022-09-01T17:38:49.636Z,0.50
2022-09-01T17:42:06.867Z,2.83
2022-09-01T17:45:26.093Z,0.97
2022-09-01T17:48:36.741Z,0.57
2022-09-01T17:51:56.013Z,0.57
2022-09-01T17:55:01.964Z,0.70
2022-09-01T17:58:13.563Z,1.70
2022-09-01T18:01:28.914Z,1.50
2022-09-01T18:04:55.275Z,1.30
2022-09-01T18:08:09.907Z,5.27
2022-09-01T18:11:16.012Z,4.97
2022-09-01T18:14:42.425Z,2.77
2022-09-01T18:18:03.267Z,1.50
2022-09-01T18:21:10.223Z,3.97
2022-09-01T18:24:17.119Z,3.23
2022-09-01T18:27:24.268Z,1.77
2022-09-01T18:30:52.190Z,2.03
2022-09-01T18:34:22.688Z,2.23
2022-09-01T18:38:00.312Z,1.00
2022-09-01T18:41:05.188Z,1.30
2022-09-01T18:44:48.161Z,2.33
2022-09-01T18:48:18.165Z,5.07
2022-09-01T18:51:56.995Z,6.33
2022-09-01T18:55:11.383Z,20.43
2022-09-01T18:58:25.866Z,5.30
2022-09-01T19:01:36.811Z,7.03
2022-09-01T19:04:46.405Z,37.90
2022-09-01T19:08:20.333Z,24.43
2022-09-01T19:11:34.873Z,35.07
2022-09-01T19:15:08.679Z,28.80
2022-09-01T19:18:47.435Z,9.50
2022-09-01T19:21:54.741Z,3.73
2022-09-01T19:25:24.781Z,2.77
2022-09-01T19:28:50.790Z,5.03
2022-09-01T19:32:18.611Z,4.13
2022-09-01T19:35:21.085Z,3.27
2022-09-01T19:38:28.182Z,1.67
2022-09-01T19:41:37.853Z,2.03
2022-09-01T19:44:51.542Z,2.20
2022-09-01T19:48:16.434Z,2.07
2022-09-01T19:51:38.854Z,1.20
2022-09-01T19:54:52.322Z,2.53
2022-09-01T19:58:32.597Z,0.83
2022-09-01T20:01:59.533Z,1.07
2022-09-01T20:05:13.198Z,1.80
2022-09-01T20:08:42.194Z,1.27
2022-09-01T20:12:21.546Z,1.47
2022-09-01T20:15:33.888Z,1.70
2022-09-01T20:18:49.279Z,1.57
2022-09-01T20:21:52.901Z,1.70
2022-09-01T20:25:09.003Z,0.70
2022-09-01T20:28:33.591Z,4.20
2022-09-01T20:31:45.672Z,0.60
2022-09-01T20:34:58.637Z,0.73
2022-09-01T20:38:31.844Z,1.00
2022-09-01T20:41:50.198Z,2.43
2022-09-01T20:49:17.709Z,1.20
2022-09-01T20:53:29.548Z,2.23
2022-09-01T20:56:40.734Z,0.70
2022-09-01T20:59:50.337Z,3.70
2022-09-01T22:02:39.241Z,1.23
2022-09-01T22:05:43.136Z,1.30
2022-09-01T22:08:45.181Z,1.23
2022-09-01T22:11:47.473Z,1.47
2022-09-01T22:14:49.561Z,0.93
2022-09-01T22:17:55.656Z,1.43
2022-09-01T22:21:06.117Z,1.37
2022-09-01T22:24:09.712Z,3.37
2022-09-01T22:27:11.736Z,4.40
2022-09-01T22:30:14.288Z,0.83
2022-09-01T22:33:17.531Z,2.17
2022-09-01T22:36:26.857Z,1.00
2022-09-01T22:39:28.904Z,2.83
2022-09-01T22:42:30.981Z,1.20
2022-09-01T22:45:33.114Z,0.80
2022-09-01T22:48:35.306Z,1.07
2022-09-01T22:51:42.399Z,1.07
2022-09-01T22:54:44.838Z,1.10
2022-09-01T22:57:49.481Z,1.07
2022-09-01T23:00:56.378Z,1.20
2022-09-01T23:04:00.672Z,2.20
2022-09-01T23:07:04.770Z,1.10
2022-09-01T23:10:08.453Z,2.53
2022-09-01T23:13:10.574Z,1.10
2022-09-01T23:16:15.587Z,0.93
2022-09-01T23:19:22.012Z,1.47
2022-09-01T23:22:24.096Z,1.07
2022-09-01T23:25:26.209Z,3.20
2022-09-01T23:28:29.007Z,0.97
2022-09-01T23:31:33.639Z,1.03
2022-09-01T23:34:35.612Z,2.80
2022-09-01T23:37:37.806Z,0.87
2022-09-01T23:40:45.004Z,1.83
2022-09-01T23:43:47.010Z,3.17
2022-09-01T23:46:49.293Z,0.77
2022-09-01T23:49:51.237Z,1.23
2022-09-01T23:52:53.403Z,0.93
2022-09-01T23:55:59.466Z,0.90
2022-09-01T23:59:01.768Z,1.83
